createdAt,value
2023-04-18T00:01:19.019Z,71.07
2023-04-18T00:03:47.170Z,71.28
2023-04-18T00:06:15.416Z,71.58
2023-04-18T00:08:43.545Z,71.85
2023-04-18T00:11:12.996Z,71.95
2023-04-18T00:13:41.545Z,72.20
2023-04-18T00:16:09.996Z,72.32
2023-04-18T00:18:39.910Z,72.69
2023-04-18T00:21:08.697Z,72.73
2023-04-18T00:23:37.263Z,72.88
2023-04-18T00:26:05.445Z,73.20
2023-04-18T00:28:34.890Z,73.35
2023-04-18T00:31:03.050Z,73.51
2023-04-18T00:33:31.164Z,73.57
2023-04-18T00:35:59.236Z,73.86
2023-04-18T00:38:27.303Z,74.17
2023-04-18T00:40:55.406Z,74.29
2023-04-18T00:43:24.342Z,74.42
2023-04-18T00:45:54.083Z,74.52
2023-04-18T00:48:22.204Z,74.75
2023-04-18T00:50:50.328Z,74.89
2023-04-18T00:53:18.514Z,75.06
2023-04-18T00:55:46.779Z,75.20
2023-04-18T00:58:15.157Z,75.25
2023-04-18T01:00:43.671Z,75.39
2023-04-18T01:03:14.500Z,75.40
2023-04-18T01:05:42.829Z,75.53
2023-04-18T01:08:11.092Z,75.74
2023-04-18T01:10:39.282Z,75.79
2023-04-18T01:13:14.592Z,75.88
2023-04-18T01:15:43.686Z,76.33
2023-04-18T01:18:17.046Z,76.53
2023-04-18T01:20:47.266Z,76.89
2023-04-18T01:23:16.021Z,77.05
2023-04-18T01:25:46.111Z,77.06
2023-04-18T01:28:15.013Z,77.24
2023-04-18T01:30:43.115Z,77.11
2023-04-18T01:33:11.412Z,77.45
2023-04-18T01:35:39.462Z,77.75
2023-04-18T01:38:07.533Z,77.75
2023-04-18T01:40:35.686Z,77.94
2023-04-18T01:43:05.136Z,77.98
2023-04-18T01:45:33.224Z,77.90
2023-04-18T01:48:01.353Z,77.80
2023-04-18T01:50:29.583Z,78.09
2023-04-18T01:52:57.632Z,78.30
2023-04-18T01:55:25.676Z,78.25
2023-04-18T01:57:53.777Z,78.17
2023-04-18T02:00:23.754Z,78.19
2023-04-18T02:02:51.963Z,78.31
2023-04-18T02:05:20.249Z,78.30
2023-04-18T02:07:50.179Z,78.31
2023-04-18T02:10:19.372Z,78.37
2023-04-18T02:12:47.577Z,78.43
2023-04-18T02:15:15.687Z,78.45
2023-04-18T02:17:45.627Z,78.39
2023-04-18T02:20:14.760Z,78.10
2023-04-18T02:22:42.901Z,78.27
2023-04-18T02:25:11.790Z,77.92
2023-04-18T02:27:39.817Z,77.90
2023-04-18T02:30:09.054Z,77.79
2023-04-18T02:32:37.196Z,77.72
2023-04-18T02:35:07.404Z,77.42
2023-04-18T02:37:35.463Z,77.21
2023-04-18T02:40:05.633Z,76.93
2023-04-18T02:42:33.855Z,76.47
2023-04-18T02:45:01.999Z,76.39
2023-04-18T02:47:31.731Z,75.95
2023-04-18T02:50:03.485Z,75.85
2023-04-18T02:52:32.973Z,75.73
2023-04-18T02:55:01.210Z,75.64
2023-04-18T02:57:29.262Z,75.71
2023-04-18T02:59:57.379Z,75.59
2023-04-18T03:02:25.626Z,75.88
2023-04-18T03:04:54.132Z,75.68
2023-04-18T03:07:22.235Z,75.46
2023-04-18T03:09:51.705Z,75.44
2023-04-18T03:12:19.785Z,75.29
2023-04-18T03:14:47.850Z,75.29
2023-04-18T03:17:16.050Z,75.12
2023-04-18T03:19:44.985Z,74.99
2023-04-18T03:22:14.043Z,74.96
2023-04-18T03:24:42.105Z,75.21
2023-04-18T03:27:11.591Z,74.81
2023-04-18T03:29:39.713Z,74.69
2023-04-18T03:32:07.818Z,74.59
2023-04-18T03:34:36.110Z,74.55
2023-04-18T03:37:04.179Z,74.64
2023-04-18T03:39:32.328Z,74.55
2023-04-18T03:42:01.478Z,74.41
2023-04-18T03:44:31.266Z,74.39
2023-04-18T03:46:59.405Z,74.29
2023-04-18T03:49:27.486Z,74.26
2023-04-18T03:51:55.629Z,74.37
2023-04-18T03:54:23.704Z,74.28
2023-04-18T03:56:51.824Z,74.26
2023-04-18T03:59:19.982Z,74.31
2023-04-18T04:01:49.531Z,74.20
2023-04-18T04:04:17.788Z,74.11
2023-04-18T04:06:46.328Z,74.01
2023-04-18T04:09:14.402Z,74.09
2023-04-18T04:11:42.502Z,74.17
2023-04-18T04:14:10.662Z,74.22
2023-04-18T04:16:38.907Z,73.97
2023-04-18T04:19:08.432Z,74.29
2023-04-18T04:21:36.599Z,73.99
2023-04-18T04:24:04.763Z,73.95
2023-04-18T04:26:32.862Z,73.90
2023-04-18T04:29:00.906Z,73.97
2023-04-18T04:31:29.473Z,74.15
2023-04-18T04:33:57.581Z,74.11
2023-04-18T04:36:27.919Z,74.14
2023-04-18T04:38:55.982Z,74.17
2023-04-18T04:41:24.626Z,74.31
2023-04-18T04:43:53.874Z,74.19
2023-04-18T04:46:23.296Z,74.22
2023-04-18T04:48:53.167Z,74.26
2023-04-18T04:51:21.263Z,74.14
2023-04-18T04:53:50.719Z,74.24
2023-04-18T04:56:18.860Z,74.08
2023-04-18T04:58:47.217Z,74.03
2023-04-18T05:01:16.803Z,73.78
2023-04-18T05:03:45.285Z,73.61
2023-04-18T05:06:14.075Z,73.38
2023-04-18T05:08:42.159Z,73.10
2023-04-18T05:11:11.603Z,72.90
2023-04-18T05:13:39.683Z,73.04
2023-04-18T05:16:07.916Z,72.85
2023-04-18T05:18:38.973Z,72.54
2023-04-18T05:21:07.169Z,72.33
2023-04-18T05:23:36.971Z,72.26
2023-04-18T05:26:05.216Z,72.21
2023-04-18T05:28:34.660Z,72.25
2023-04-18T05:31:02.844Z,72.31
2023-04-18T05:33:31.627Z,72.40
2023-04-18T05:36:00.060Z,72.26
2023-04-18T05:38:28.218Z,72.14
2023-04-18T05:40:57.140Z,72.21
2023-04-18T05:43:25.216Z,72.24
2023-04-18T05:45:56.553Z,71.88
2023-04-18T05:48:26.132Z,71.76
2023-04-18T05:50:54.263Z,71.57
2023-04-18T05:53:22.321Z,71.66
2023-04-18T05:55:50.556Z,72.58
2023-04-18T05:58:18.637Z,73.24
2023-04-18T06:00:48.257Z,74.19
2023-04-18T06:03:17.947Z,74.50
2023-04-18T06:08:14.318Z,75.42
2023-04-18T06:10:42.398Z,75.64
2023-04-18T06:13:10.504Z,76.00
2023-04-18T06:15:38.656Z,75.74
2023-04-18T06:18:06.842Z,75.84
2023-04-18T06:20:36.413Z,75.44
2023-04-18T06:23:04.475Z,74.97
2023-04-18T06:25:32.565Z,74.83
2023-04-18T06:28:00.669Z,74.57
2023-04-18T06:30:28.801Z,74.45
2023-04-18T06:32:56.885Z,73.64
2023-04-18T06:35:26.621Z,73.14
2023-04-18T06:37:57.146Z,72.36
2023-04-18T06:40:25.303Z,72.66
2023-04-18T06:42:53.583Z,72.28
2023-04-18T06:45:21.810Z,71.23
2023-04-18T06:47:51.374Z,70.81
2023-04-18T06:50:19.622Z,70.38
2023-04-18T06:52:47.705Z,70.64
2023-04-18T06:55:17.247Z,70.19
2023-04-18T06:57:45.550Z,69.66
2023-04-18T07:00:14.539Z,69.94
2023-04-18T07:02:42.701Z,69.60
2023-04-18T07:05:11.514Z,69.92
2023-04-18T07:07:40.146Z,70.24
2023-04-18T07:10:09.948Z,70.13
2023-04-18T07:12:39.461Z,70.22
2023-04-18T07:15:08.581Z,70.20
2023-04-18T07:17:37.079Z,69.80
2023-04-18T07:20:06.000Z,70.11
2023-04-18T07:22:34.267Z,69.75
2023-04-18T07:25:02.416Z,69.74
2023-04-18T07:27:30.816Z,69.35
2023-04-18T07:30:00.264Z,69.41
2023-04-18T07:32:28.366Z,68.83
2023-04-18T07:34:57.573Z,68.48
2023-04-18T07:37:26.192Z,68.38
2023-04-18T07:39:54.371Z,67.43
2023-04-18T07:42:22.458Z,66.87
2023-04-18T07:44:50.604Z,66.58
2023-04-18T07:47:22.437Z,66.68
2023-04-18T07:49:50.815Z,66.20
2023-04-18T07:52:19.115Z,66.45
2023-04-18T07:54:47.661Z,66.31
2023-04-18T07:57:15.816Z,66.01
2023-04-18T07:59:43.874Z,65.92
2023-04-18T08:02:11.954Z,65.88
2023-04-18T08:04:41.544Z,66.29
2023-04-18T08:07:09.826Z,66.42
2023-04-18T08:09:37.915Z,66.78
2023-04-18T08:12:06.528Z,66.57
2023-04-18T08:14:34.610Z,66.43
2023-04-18T08:17:02.701Z,66.34
2023-04-18T08:19:30.834Z,66.31
2023-04-18T08:22:10.269Z,65.91
2023-04-18T08:24:38.969Z,65.45
2023-04-18T08:27:07.425Z,65.49
2023-04-18T08:29:35.517Z,65.15
2023-04-18T08:32:03.801Z,64.85
2023-04-18T08:34:34.241Z,64.96
2023-04-18T08:37:02.629Z,65.29
2023-04-18T08:39:32.221Z,65.16
2023-04-18T08:42:01.667Z,64.95
2023-04-18T08:44:30.632Z,64.77
2023-04-18T08:47:00.230Z,63.61
2023-04-18T08:49:28.795Z,63.18
2023-04-18T08:51:57.544Z,62.04
2023-04-18T08:54:27.403Z,62.16
2023-04-18T08:57:16.652Z,61.83
2023-04-18T08:59:48.270Z,61.02
2023-04-18T09:02:19.227Z,60.14
2023-04-18T09:04:52.420Z,59.99
2023-04-18T09:07:23.693Z,60.17
2023-04-18T09:09:53.605Z,59.67
2023-04-18T09:12:24.147Z,60.32
2023-04-18T09:14:56.481Z,59.68
2023-04-18T09:17:35.573Z,59.50
2023-04-18T09:20:06.072Z,59.57
2023-04-18T09:22:48.622Z,58.65
2023-04-18T09:25:27.465Z,58.30
2023-04-18T09:27:57.472Z,57.41
2023-04-18T09:30:36.950Z,56.95
2023-04-18T09:33:07.651Z,57.15
2023-04-18T09:35:36.228Z,56.88
2023-04-18T09:38:04.680Z,56.47
2023-04-18T09:40:33.431Z,56.78
2023-04-18T09:43:18.043Z,56.83
2023-04-18T09:45:48.811Z,57.14
2023-04-18T09:48:16.913Z,56.88
2023-04-18T09:50:46.099Z,56.65
2023-04-18T09:53:15.238Z,56.85
2023-04-18T09:55:43.586Z,56.96
2023-04-18T09:58:13.522Z,57.01
2023-04-18T10:00:41.793Z,56.33
2023-04-18T10:03:11.422Z,56.22
2023-04-18T10:05:41.327Z,56.20
2023-04-18T10:08:10.441Z,56.71
2023-04-18T10:10:39.191Z,55.92
2023-04-18T10:13:11.041Z,55.21
2023-04-18T10:15:42.392Z,55.14
2023-04-18T10:18:15.838Z,55.81
2023-04-18T10:20:44.494Z,55.79
2023-04-18T10:23:38.526Z,55.45
2023-04-18T10:26:07.554Z,55.01
2023-04-18T10:28:53.115Z,54.69
2023-04-18T10:31:23.800Z,54.56
2023-04-18T10:34:04.130Z,53.76
2023-04-18T10:36:34.052Z,53.43
2023-04-18T10:39:04.296Z,53.17
2023-04-18T10:41:33.293Z,53.36
2023-04-18T10:44:22.307Z,53.46
2023-04-18T10:47:26.822Z,51.49
2023-04-18T10:49:58.520Z,51.92
2023-04-18T10:52:27.701Z,52.41
2023-04-18T10:55:05.749Z,51.21
2023-04-18T10:57:44.101Z,51.03
2023-04-18T11:00:14.772Z,51.44
2023-04-18T11:02:50.453Z,50.84
2023-04-18T11:05:24.826Z,50.62
2023-04-18T11:07:53.060Z,49.78
2023-04-18T11:10:22.703Z,49.36
2023-04-18T11:12:51.235Z,48.52
2023-04-18T11:15:22.375Z,48.33
2023-04-18T11:17:58.579Z,47.33
2023-04-18T11:20:28.834Z,46.85
2023-04-18T11:22:58.132Z,45.59
2023-04-18T11:25:27.962Z,45.54
2023-04-18T11:27:56.654Z,45.77
2023-04-18T11:30:24.828Z,45.75
2023-04-18T11:32:55.959Z,45.52
2023-04-18T11:35:24.247Z,44.50
2023-04-18T11:37:55.740Z,43.98
2023-04-18T11:40:24.017Z,44.83
2023-04-18T11:42:52.137Z,45.09
2023-04-18T11:45:20.260Z,44.50
2023-04-18T11:47:48.527Z,44.68
2023-04-18T11:50:16.714Z,44.14
2023-04-18T11:52:50.624Z,44.18
2023-04-18T11:55:22.109Z,44.11
2023-04-18T11:57:54.402Z,44.82
2023-04-18T12:00:34.435Z,44.86
2023-04-18T12:03:04.570Z,44.22
2023-04-18T12:05:34.801Z,43.87
2023-04-18T12:08:10.210Z,43.42
2023-04-18T12:10:46.518Z,44.73
2023-04-18T12:13:14.738Z,44.12
2023-04-18T12:15:45.677Z,43.64
2023-04-18T12:18:15.292Z,43.76
2023-04-18T12:20:50.117Z,44.45
2023-04-18T12:23:31.962Z,45.01
2023-04-18T12:26:02.609Z,45.84
2023-04-18T12:28:31.342Z,46.01
2023-04-18T12:30:59.941Z,46.58
2023-04-18T12:33:28.128Z,47.52
2023-04-18T12:35:56.223Z,47.17
2023-04-18T12:38:25.007Z,47.08
2023-04-18T12:40:53.472Z,47.19
2023-04-18T12:43:22.913Z,47.02
2023-04-18T12:45:51.147Z,47.60
2023-04-18T12:48:19.228Z,48.79
2023-04-18T12:50:47.344Z,49.24
2023-04-18T12:53:15.422Z,48.95
2023-04-18T12:55:43.581Z,48.89
2023-04-18T12:58:11.680Z,48.29
2023-04-18T13:00:41.392Z,48.51
2023-04-18T13:03:11.753Z,48.18
2023-04-18T13:05:41.331Z,48.96
2023-04-18T13:08:17.009Z,48.49
2023-04-18T13:10:47.479Z,48.81
2023-04-18T13:13:15.970Z,48.31
2023-04-18T13:15:45.493Z,48.51
2023-04-18T13:18:13.597Z,49.24
2023-04-18T13:20:41.766Z,49.53
2023-04-18T13:23:09.864Z,49.96
2023-04-18T13:25:37.933Z,50.09
2023-04-18T13:28:06.406Z,50.09
2023-04-18T13:30:35.764Z,50.26
2023-04-18T13:33:05.516Z,49.88
2023-04-18T13:35:33.647Z,49.80
2023-04-18T13:38:01.734Z,49.25
2023-04-18T13:40:29.854Z,48.65
2023-04-18T13:42:57.979Z,47.97
2023-04-18T13:45:26.104Z,48.75
2023-04-18T13:47:54.348Z,49.52
2023-04-18T13:50:24.486Z,49.07
2023-04-18T13:52:54.474Z,49.09
2023-04-18T13:55:22.712Z,49.78
2023-04-18T13:57:51.066Z,49.77
2023-04-18T14:00:20.364Z,49.65
2023-04-18T14:02:48.668Z,49.95
2023-04-18T14:05:16.982Z,50.70
2023-04-18T14:07:46.769Z,51.31
2023-04-18T14:10:15.015Z,51.54
2023-04-18T14:12:43.112Z,51.04
2023-04-18T14:15:12.119Z,51.56
2023-04-18T14:17:40.877Z,51.27
2023-04-18T14:20:10.869Z,50.50
2023-04-18T14:22:39.006Z,50.57
2023-04-18T14:25:09.784Z,49.99
2023-04-18T14:27:38.052Z,49.68
2023-04-18T14:30:08.680Z,49.57
2023-04-18T14:32:36.970Z,49.64
2023-04-18T14:35:07.113Z,49.95
2023-04-18T14:37:35.404Z,50.19
2023-04-18T14:40:05.464Z,49.98
2023-04-18T14:42:34.942Z,49.93
2023-04-18T14:45:05.128Z,49.26
2023-04-18T14:47:34.675Z,49.66
2023-04-18T14:50:02.923Z,49.02
2023-04-18T14:52:31.033Z,48.59
2023-04-18T14:54:59.116Z,48.74
2023-04-18T14:57:29.403Z,48.57
2023-04-18T14:59:58.872Z,48.83
2023-04-18T15:02:27.334Z,48.76
2023-04-18T15:04:55.814Z,49.11
2023-04-18T15:07:23.940Z,49.66
2023-04-18T15:09:52.132Z,50.15
2023-04-18T15:12:20.193Z,50.36
2023-04-18T15:14:48.292Z,49.93
2023-04-18T15:17:17.780Z,48.97
2023-04-18T15:19:45.859Z,48.57
2023-04-18T15:22:14.240Z,47.82
2023-04-18T15:24:42.400Z,47.64
2023-04-18T15:27:10.851Z,48.31
2023-04-18T15:29:38.943Z,49.06
2023-04-18T15:32:07.303Z,49.02
2023-04-18T15:34:36.966Z,49.17
2023-04-18T15:37:05.050Z,49.62
2023-04-18T15:39:33.152Z,49.66
2023-04-18T15:42:02.241Z,50.28
2023-04-18T15:44:30.577Z,49.89
2023-04-18T15:47:01.083Z,49.36
2023-04-18T15:49:29.136Z,49.01
2023-04-18T15:51:58.612Z,48.14
2023-04-18T15:54:26.730Z,48.03
2023-04-18T15:56:54.837Z,48.37
2023-04-18T15:59:22.926Z,48.61
2023-04-18T16:01:51.555Z,48.35
2023-04-18T16:04:19.755Z,48.10
2023-04-18T16:06:47.841Z,48.24
2023-04-18T16:09:17.367Z,47.63
2023-04-18T16:11:45.491Z,48.03
2023-04-18T16:14:13.865Z,47.56
2023-04-18T16:16:42.197Z,47.27
2023-04-18T16:19:10.275Z,46.75
2023-04-18T16:21:38.403Z,46.77
2023-04-18T16:24:07.147Z,46.44
2023-04-18T16:26:36.609Z,46.88
2023-04-18T16:29:04.720Z,47.85
2023-04-18T16:31:32.824Z,47.96
2023-04-18T16:34:01.103Z,48.42
2023-04-18T16:36:29.208Z,49.05
2023-04-18T16:38:57.283Z,49.01
2023-04-18T16:41:25.598Z,49.13
2023-04-18T16:43:55.277Z,49.00
2023-04-18T16:46:23.531Z,48.29
2023-04-18T16:48:52.508Z,47.54
2023-04-18T16:51:20.993Z,46.89
2023-04-18T16:53:49.225Z,46.13
2023-04-18T16:56:17.338Z,45.24
2023-04-18T16:58:45.423Z,44.59
2023-04-18T17:01:14.932Z,43.16
2023-04-18T17:03:43.106Z,42.21
2023-04-18T17:06:11.279Z,41.86
2023-04-18T17:08:39.330Z,41.50
2023-04-18T17:11:07.969Z,41.92
2023-04-18T17:13:36.390Z,42.01
2023-04-18T17:16:04.778Z,42.23
2023-04-18T17:18:34.567Z,41.90
2023-04-18T17:21:03.283Z,42.17
2023-04-18T17:23:32.959Z,41.75
2023-04-18T17:26:01.315Z,41.70
2023-04-18T17:28:29.379Z,41.58
2023-04-18T17:30:58.565Z,41.29
2023-04-18T17:33:26.671Z,41.60
2023-04-18T17:35:56.229Z,41.32
2023-04-18T17:38:24.387Z,41.50
2023-04-18T17:40:59.992Z,41.57
2023-04-18T17:43:28.377Z,41.20
2023-04-18T17:45:57.122Z,41.43
2023-04-18T17:48:25.891Z,41.48
2023-04-18T17:50:53.992Z,41.20
2023-04-18T17:53:23.458Z,41.40
2023-04-18T17:55:52.250Z,41.79
2023-04-18T17:58:21.013Z,42.04
2023-04-18T18:00:49.196Z,41.97
2023-04-18T18:03:17.962Z,42.14
2023-04-18T18:05:47.028Z,41.80
2023-04-18T18:08:15.137Z,41.67
2023-04-18T18:10:46.907Z,42.66
2023-04-18T18:13:15.252Z,43.21
2023-04-18T18:15:43.369Z,43.63
2023-04-18T18:18:11.552Z,43.35
2023-04-18T18:20:43.335Z,43.50
2023-04-18T18:23:11.441Z,44.03
2023-04-18T18:25:40.184Z,43.91
2023-04-18T18:28:09.686Z,44.12
2023-04-18T18:30:38.224Z,44.46
2023-04-18T18:33:06.430Z,45.36
2023-04-18T18:35:34.933Z,45.27
2023-04-18T18:38:03.061Z,45.14
2023-04-18T18:40:31.223Z,45.38
2023-04-18T18:43:02.343Z,45.53
2023-04-18T18:45:31.889Z,46.19
2023-04-18T18:48:00.005Z,46.24
2023-04-18T18:50:28.141Z,46.58
2023-04-18T18:52:56.272Z,46.90
2023-04-18T18:55:24.485Z,47.41
2023-04-18T18:57:52.725Z,47.97
2023-04-18T19:00:21.041Z,48.11
2023-04-18T19:02:50.734Z,48.45
2023-04-18T19:05:18.921Z,49.00
2023-04-18T19:07:47.125Z,49.07
2023-04-18T19:10:15.382Z,49.24
2023-04-18T19:12:43.560Z,49.76
2023-04-18T19:15:12.880Z,49.62
2023-04-18T19:17:41.595Z,50.23
2023-04-18T19:20:12.015Z,50.48
2023-04-18T19:22:40.115Z,50.55
2023-04-18T19:25:09.719Z,50.57
2023-04-18T19:27:37.849Z,50.79
2023-04-18T19:30:06.969Z,51.00
2023-04-18T19:32:35.105Z,50.75
2023-04-18T19:35:04.594Z,50.75
2023-04-18T19:37:35.965Z,50.74
2023-04-18T19:40:04.153Z,50.94
2023-04-18T19:42:32.232Z,50.98
2023-04-18T19:45:00.433Z,51.34
2023-04-18T19:47:32.163Z,51.35
2023-04-18T19:50:00.789Z,51.63
2023-04-18T19:52:28.869Z,51.99
2023-04-18T19:54:58.348Z,52.29
2023-04-18T19:57:27.716Z,52.69
2023-04-18T19:59:55.875Z,52.81
2023-04-18T20:02:24.135Z,52.41
2023-04-18T20:04:52.689Z,52.25
2023-04-18T20:07:20.838Z,52.08
2023-04-18T20:09:48.943Z,52.52
2023-04-18T20:12:18.401Z,52.68
2023-04-18T20:14:46.551Z,52.82
2023-04-18T20:17:14.722Z,52.88
2023-04-18T20:19:42.814Z,52.65
2023-04-18T20:22:10.885Z,52.38
2023-04-18T20:24:40.152Z,52.53
2023-04-18T20:27:08.265Z,52.38
2023-04-18T20:29:37.776Z,52.19
2023-04-18T20:32:06.461Z,52.11
2023-04-18T20:34:34.557Z,52.35
2023-04-18T20:37:02.604Z,52.89
2023-04-18T20:39:31.503Z,53.17
2023-04-18T20:41:59.860Z,53.22
2023-04-18T20:44:28.147Z,53.70
2023-04-18T20:46:58.023Z,53.95
2023-04-18T20:49:26.185Z,54.34
2023-04-18T20:51:54.277Z,54.79
2023-04-18T20:54:22.397Z,55.62
2023-04-18T20:56:50.458Z,56.18
2023-04-18T20:59:18.550Z,56.95
2023-04-18T21:01:46.925Z,57.51
2023-04-18T21:04:16.763Z,57.87
2023-04-18T21:06:45.174Z,58.34
2023-04-18T21:09:13.431Z,58.46
2023-04-18T21:11:41.725Z,58.87
2023-04-18T21:14:09.930Z,58.97
2023-04-18T21:16:39.539Z,59.65
2023-04-18T21:19:08.521Z,59.97
2023-04-18T21:21:37.981Z,60.19
2023-04-18T21:24:06.711Z,60.22
2023-04-18T21:26:34.808Z,60.63
2023-04-18T21:29:04.697Z,60.97
2023-04-18T21:31:34.255Z,61.27
2023-04-18T21:34:03.428Z,61.72
2023-04-18T21:36:32.123Z,62.00
2023-04-18T21:39:01.953Z,62.37
2023-04-18T21:41:30.050Z,62.58
2023-04-18T21:43:58.147Z,63.05
2023-04-18T21:46:26.503Z,63.20
2023-04-18T21:48:54.775Z,63.50
2023-04-18T21:51:22.916Z,63.68
2023-04-18T21:53:50.998Z,63.93
2023-04-18T21:56:20.466Z,64.09
2023-04-18T21:58:48.673Z,64.32
2023-04-18T22:01:16.760Z,64.48
2023-04-18T22:03:46.264Z,64.73
2023-04-18T22:06:14.555Z,64.91
2023-04-18T22:08:43.640Z,65.16
2023-04-18T22:11:13.579Z,65.32
2023-04-18T22:13:44.633Z,65.47
2023-04-18T22:16:12.898Z,65.56
2023-04-18T22:18:41.038Z,65.78
2023-04-18T22:21:09.543Z,65.88
2023-04-18T22:23:37.606Z,65.99
2023-04-18T22:26:05.830Z,66.15
2023-04-18T22:28:33.994Z,66.20
2023-04-18T22:31:03.450Z,66.20
2023-04-18T22:33:31.585Z,66.60
2023-04-18T22:35:59.699Z,66.69
2023-04-18T22:38:27.786Z,66.77
2023-04-18T22:40:55.822Z,67.10
2023-04-18T22:43:24.992Z,67.41
2023-04-18T22:45:53.187Z,67.73
2023-04-18T22:48:23.760Z,67.68
2023-04-18T22:50:51.951Z,67.86
2023-04-18T22:53:20.034Z,68.07
2023-04-18T22:55:48.101Z,68.09
2023-04-18T22:58:16.241Z,68.37
2023-04-18T23:00:44.375Z,68.48
2023-04-18T23:03:12.601Z,68.73
2023-04-18T23:05:42.187Z,69.06
2023-04-18T23:08:11.832Z,69.24
2023-04-18T23:10:40.075Z,69.67
2023-04-18T23:13:08.220Z,69.64
2023-04-18T23:15:36.333Z,69.98
2023-04-18T23:18:04.478Z,70.16
2023-04-18T23:20:32.653Z,70.32
2023-04-18T23:23:02.064Z,70.26
2023-04-18T23:25:32.390Z,70.48
2023-04-18T23:28:00.693Z,70.89
2023-04-18T23:30:28.858Z,70.92
2023-04-18T23:32:56.934Z,71.19
2023-04-18T23:35:25.190Z,71.48
2023-04-18T23:37:53.293Z,71.59
2023-04-18T23:40:23.413Z,71.60
2023-04-18T23:42:51.529Z,71.82
2023-04-18T23:45:19.652Z,72.01
2023-04-18T23:47:47.854Z,71.83
2023-04-18T23:50:15.983Z,71.88
2023-04-18T23:52:44.240Z,71.70
2023-04-18T23:55:12.573Z,71.38
2023-04-18T23:57:42.040Z,71.14
